Time;durP1;ratioP1;P1;durP2;ratioP2;P2;SDS_P1;SDS_P2;PMS_P1;PMS_P2;Temp;Humidity;BMP_temperature;BMP_pressure;BME280_temperature;BME280_humidity;BME280_pressure;Samples;Min_cycle;Max_cycle;Signal;HPM_P1;HPM_P2
2023/04/14 00:01:27;;;;;;;10.30;2.75;;;7.40;99.90;;;;;;4789051;30;20285;-78
2023/04/14 00:03:53;;;;;;;12.23;3.10;;;7.40;99.90;;;;;;4792238;29;20184;-78
2023/04/14 00:06:19;;;;;;;15.95;3.08;;;7.40;99.90;;;;;;4806342;29;20657;-77
2023/04/14 00:08:44;;;;;;;14.98;3.10;;;7.40;99.90;;;;;;4790220;29;20568;-78
2023/04/14 00:11:10;;;;;;;10.20;3.00;;;7.40;99.90;;;;;;4806757;29;20688;-78
2023/04/14 00:13:36;;;;;;;13.57;2.85;;;7.30;99.90;;;;;;4787639;29;20771;-78
2023/04/14 00:16:05;;;;;;;11.68;3.05;;;7.30;99.90;;;;;;4788859;29;20309;-77
2023/04/14 00:18:30;;;;;;;15.98;2.80;;;7.30;99.90;;;;;;4789289;29;20199;-78
2023/04/14 00:20:56;;;;;;;18.25;3.08;;;7.20;99.90;;;;;;4793416;29;20563;-78
2023/04/14 00:23:22;;;;;;;16.70;3.08;;;7.20;99.90;;;;;;4791578;29;20689;-77
2023/04/14 00:25:51;;;;;;;12.55;3.47;;;7.20;99.90;;;;;;4807073;29;20192;-76
2023/04/14 00:28:16;;;;;;;14.10;3.00;;;7.20;99.90;;;;;;4795809;29;20220;-77
2023/04/14 00:30:44;;;;;;;10.30;2.90;;;7.20;99.90;;;;;;4796691;29;20211;-76
2023/04/14 00:33:10;;;;;;;13.30;2.85;;;7.10;99.90;;;;;;4797027;29;20203;-79
2023/04/14 00:35:36;;;;;;;15.65;3.15;;;7.10;99.90;;;;;;4806997;29;20663;-77
2023/04/14 00:38:02;;;;;;;14.05;2.92;;;7.10;99.90;;;;;;4789615;29;20195;-76
2023/04/14 00:40:29;;;;;;;13.93;3.20;;;7.10;99.90;;;;;;4806939;29;20598;-77
2023/04/14 00:42:55;;;;;;;11.07;3.03;;;7.10;99.90;;;;;;4791210;29;20228;-76
2023/04/14 00:45:21;;;;;;;17.90;3.17;;;7.10;99.90;;;;;;4788094;29;20263;-77
2023/04/14 00:47:49;;;;;;;11.35;3.20;;;7.10;99.90;;;;;;4781934;29;20200;-76
2023/04/14 00:50:19;;;;;;;10.55;2.75;;;7.10;99.90;;;;;;4803655;29;20181;-77
2023/04/14 00:52:47;;;;;;;9.88;3.05;;;7.10;99.90;;;;;;4805926;29;20200;-78
2023/04/14 00:55:15;;;;;;;10.73;3.20;;;7.10;99.90;;;;;;4776966;29;20185;-76
2023/04/14 00:57:41;;;;;;;11.90;3.08;;;7.10;99.90;;;;;;4787917;30;20669;-78
2023/04/14 01:00:07;;;;;;;7.68;2.85;;;7.10;99.90;;;;;;4799115;29;20605;-77
2023/04/14 01:02:33;;;;;;;10.52;2.72;;;7.10;99.90;;;;;;4796447;29;20195;-77
2023/04/14 01:04:59;;;;;;;13.15;3.28;;;7.10;99.90;;;;;;4789443;29;20188;-76
2023/04/14 01:07:26;;;;;;;14.07;2.53;;;7.10;99.90;;;;;;4772681;30;20196;-77
2023/04/14 01:09:56;;;;;;;14.35;3.17;;;7.10;99.90;;;;;;4752497;30;20580;-77
2023/04/14 01:12:59;;;;;;;8.88;2.47;;;7.20;99.90;;;;;;4786571;29;20234;-76
2023/04/14 01:15:51;;;;;;;9.75;2.40;;;7.10;99.90;;;;;;4803183;29;20208;-76
2023/04/14 01:18:48;;;;;;;8.10;2.60;;;7.10;99.90;;;;;;4790359;29;20202;-76
2023/04/14 01:21:19;;;;;;;8.35;2.13;;;7.20;99.90;;;;;;4790130;29;20198;-76
2023/04/14 01:24:30;;;;;;;14.77;2.80;;;7.10;99.90;;;;;;4789014;29;20278;-77
2023/04/14 01:27:20;;;;;;;10.48;2.80;;;7.10;99.90;;;;;;4784373;29;20200;-76
2023/04/14 01:30:09;;;;;;;9.30;2.85;;;7.20;99.90;;;;;;4789666;29;20189;-77
2023/04/14 01:32:41;;;;;;;10.20;2.85;;;7.20;99.90;;;;;;4788617;29;20193;-77
2023/04/14 01:35:19;;;;;;;10.52;2.70;;;7.20;99.90;;;;;;4791689;29;20185;-77
2023/04/14 01:37:51;;;;;;;9.45;2.67;;;7.20;99.90;;;;;;4772400;30;20303;-77
2023/04/14 01:40:19;;;;;;;8.10;2.58;;;7.20;99.90;;;;;;4802551;29;20192;-77
2023/04/14 01:42:51;;;;;;;12.68;2.60;;;7.20;99.90;;;;;;4790462;29;20212;-77
2023/04/14 01:45:24;;;;;;;14.10;3.13;;;7.20;99.90;;;;;;4786093;29;20196;-77
2023/04/14 01:53:30;;;;;;;13.55;2.72;;;7.10;99.90;;;;;;4847274;24;20238;-77
2023/04/14 01:55:57;;;;;;;11.75;2.60;;;7.10;99.90;;;;;;4787230;29;20219;-77
2023/04/14 01:58:25;;;;;;;9.43;2.63;;;7.10;99.90;;;;;;4789514;29;20223;-76
2023/04/14 02:00:52;;;;;;;10.48;2.83;;;7.10;99.90;;;;;;4788657;29;20199;-76
2023/04/14 02:03:19;;;;;;;10.93;2.90;;;7.10;99.90;;;;;;4804321;29;20192;-77
2023/04/14 02:05:47;;;;;;;8.57;2.70;;;7.10;99.90;;;;;;4781952;29;20187;-76
2023/04/14 02:08:13;;;;;;;14.32;2.80;;;7.10;99.90;;;;;;4785313;29;20200;-77
2023/04/14 02:10:42;;;;;;;7.72;2.40;;;7.00;99.90;;;;;;4804999;29;20202;-77
2023/04/14 02:13:10;;;;;;;8.50;2.20;;;7.10;99.90;;;;;;4804253;29;20772;-77
2023/04/14 02:15:38;;;;;;;9.32;2.65;;;7.10;99.90;;;;;;4789508;29;20200;-76
2023/04/14 02:18:06;;;;;;;10.82;2.45;;;7.00;99.90;;;;;;4794021;29;20200;-77
2023/04/14 02:20:32;;;;;;;13.48;2.85;;;7.00;99.90;;;;;;4780248;29;20200;-78
2023/04/14 02:22:59;;;;;;;10.98;3.38;;;7.10;99.90;;;;;;4795443;29;20656;-84
2023/04/14 02:25:31;;;;;;;11.77;3.75;;;6.90;99.90;;;;;;4785712;30;20196;-77
2023/04/14 02:28:04;;;;;;;10.60;5.13;;;6.90;99.90;;;;;;4786597;29;20253;-77
2023/04/14 02:30:34;;;;;;;16.70;5.50;;;6.80;99.90;;;;;;4788608;29;20176;-77
2023/04/14 02:33:06;;;;;;;10.75;4.35;;;6.80;99.90;;;;;;4803995;29;20192;-77
2023/04/14 02:35:54;;;;;;;13.43;4.40;;;6.70;99.90;;;;;;4805915;29;20236;-77
2023/04/14 02:38:28;;;;;;;9.48;3.75;;;6.70;99.90;;;;;;4780823;29;20291;-77
2023/04/14 02:40:54;;;;;;;12.15;3.63;;;6.60;99.90;;;;;;4788052;29;20664;-77
2023/04/14 02:43:29;;;;;;;11.10;3.67;;;6.60;99.90;;;;;;4791705;29;20184;-77
2023/04/14 02:45:57;;;;;;;11.88;4.00;;;6.60;99.90;;;;;;4793437;29;20187;-76
2023/04/14 02:48:26;;;;;;;11.18;4.25;;;6.60;99.90;;;;;;4807620;29;20218;-77
2023/04/14 02:50:54;;;;;;;10.90;3.72;;;6.60;99.90;;;;;;4789724;29;20195;-77
2023/04/14 02:53:25;;;;;;;11.75;3.75;;;6.50;99.90;;;;;;4778100;29;20258;-77
2023/04/14 02:56:00;;;;;;;10.07;3.20;;;6.60;99.90;;;;;;4792931;29;20219;-77
2023/04/14 02:58:31;;;;;;;9.50;2.80;;;6.70;99.90;;;;;;4792434;29;20196;-77
2023/04/14 03:01:00;;;;;;;7.43;2.40;;;6.70;99.90;;;;;;4763841;29;20195;-77
2023/04/14 03:03:27;;;;;;;7.70;2.63;;;6.70;99.90;;;;;;4792321;29;20676;-77
2023/04/14 03:05:55;;;;;;;9.25;2.63;;;6.70;99.90;;;;;;4792999;29;20266;-77
2023/04/14 03:08:22;;;;;;;7.97;2.58;;;6.70;99.90;;;;;;4791558;29;20286;-77
2023/04/14 03:10:50;;;;;;;14.85;2.85;;;6.70;99.90;;;;;;4792124;29;20279;-77
2023/04/14 03:13:24;;;;;;;6.63;2.38;;;6.70;99.90;;;;;;4784721;29;20192;-78
2023/04/14 03:15:51;;;;;;;5.65;2.20;;;6.70;99.90;;;;;;4790668;29;22132;-76
2023/04/14 03:18:19;;;;;;;7.80;2.50;;;6.80;99.90;;;;;;4785853;29;20568;-77
2023/04/14 03:20:49;;;;;;;5.70;2.45;;;6.80;99.90;;;;;;4791481;29;20204;-78
2023/04/14 03:23:17;;;;;;;7.00;2.40;;;6.70;99.90;;;;;;4797221;29;20282;-77
2023/04/14 03:25:50;;;;;;;12.45;2.50;;;6.70;99.90;;;;;;4800327;29;20199;-78
2023/04/14 03:28:26;;;;;;;8.77;2.70;;;6.70;99.90;;;;;;4789837;29;20184;-77
2023/04/14 03:30:55;;;;;;;8.82;3.05;;;6.70;99.90;;;;;;4795937;29;20193;-78
2023/04/14 03:33:27;;;;;;;8.10;2.50;;;6.70;99.90;;;;;;4794775;29;20221;-78
2023/04/14 03:35:56;;;;;;;10.02;3.20;;;6.70;99.90;;;;;;4788837;29;20316;-78
2023/04/14 03:38:26;;;;;;;12.50;4.50;;;6.70;99.90;;;;;;4771009;29;20184;-78
2023/04/14 03:40:56;;;;;;;12.27;4.72;;;6.60;99.90;;;;;;4792355;29;20188;-77
2023/04/14 03:43:23;;;;;;;10.65;4.32;;;6.60;99.90;;;;;;4791043;29;20187;-77
2023/04/14 03:45:55;;;;;;;15.68;3.88;;;6.50;99.90;;;;;;4792202;29;20192;-78
2023/04/14 03:48:25;;;;;;;12.80;4.47;;;6.50;99.90;;;;;;4805410;29;20204;-79
2023/04/14 03:50:52;;;;;;;19.70;5.05;;;6.40;99.90;;;;;;4790728;29;20215;-78
2023/04/14 03:53:20;;;;;;;9.43;5.05;;;6.40;99.90;;;;;;4790060;29;20255;-77
2023/04/14 03:55:50;;;;;;;9.55;4.82;;;6.30;99.90;;;;;;4794086;29;20219;-78
2023/04/14 03:58:17;;;;;;;13.77;4.88;;;6.30;99.90;;;;;;4790697;29;20549;-78
2023/04/14 04:00:46;;;;;;;12.93;6.25;;;6.30;99.90;;;;;;4789889;29;20276;-77
2023/04/14 04:03:14;;;;;;;22.13;12.63;;;6.20;99.90;;;;;;4771956;30;20189;-78
2023/04/14 04:05:41;;;;;;;18.52;11.15;;;6.30;99.90;;;;;;4789140;29;20204;-77
2023/04/14 04:08:08;;;;;;;24.75;11.57;;;6.20;99.90;;;;;;4791440;29;20188;-77
2023/04/14 04:10:35;;;;;;;21.83;11.73;;;6.10;99.90;;;;;;4791350;29;20613;-77
2023/04/14 04:13:05;;;;;;;25.15;17.80;;;6.10;99.90;;;;;;4783656;29;20200;-77
2023/04/14 04:15:32;;;;;;;23.05;15.00;;;6.10;99.90;;;;;;4792668;29;20276;-77
2023/04/14 04:17:59;;;;;;;26.90;15.60;;;6.10;99.90;;;;;;4790145;29;20246;-77
2023/04/14 04:20:28;;;;;;;21.88;15.82;;;6.00;99.90;;;;;;4791819;29;20226;-78
2023/04/14 04:22:56;;;;;;;28.13;15.38;;;6.00;99.90;;;;;;4787899;29;20221;-77
2023/04/14 04:25:22;;;;;;;22.88;14.68;;;6.00;99.90;;;;;;4815432;29;20179;-78
2023/04/14 04:27:57;;;;;;;35.90;18.95;;;6.00;99.90;;;;;;4799211;29;20256;-78
2023/04/14 04:30:26;;;;;;;31.67;18.23;;;5.90;99.90;;;;;;4791574;29;20633;-76
2023/04/14 04:32:52;;;;;;;32.35;17.48;;;5.90;99.90;;;;;;4786675;30;20213;-79
2023/04/14 04:35:20;;;;;;;27.85;15.35;;;5.90;99.90;;;;;;4773398;29;20197;-79
2023/04/14 04:37:47;;;;;;;20.45;11.55;;;5.90;99.90;;;;;;4797046;29;20224;-78
2023/04/14 04:40:13;;;;;;;19.00;10.93;;;5.90;99.90;;;;;;4768562;30;20295;-78
2023/04/14 04:42:41;;;;;;;19.63;10.20;;;5.90;99.90;;;;;;4781271;29;20712;-79
2023/04/14 04:45:08;;;;;;;17.35;9.98;;;5.90;99.90;;;;;;4791370;29;20192;-78
2023/04/14 04:47:35;;;;;;;15.23;9.07;;;5.90;99.90;;;;;;4779300;29;20190;-79
2023/04/14 04:50:01;;;;;;;21.90;9.20;;;5.90;99.90;;;;;;4791066;29;20286;-78
2023/04/14 04:52:26;;;;;;;20.15;8.85;;;5.80;99.90;;;;;;4789313;29;20239;-79
2023/04/14 04:54:52;;;;;;;14.55;9.15;;;5.80;99.90;;;;;;4791013;29;20279;-78
2023/04/14 04:57:18;;;;;;;16.13;7.60;;;5.80;99.90;;;;;;4790063;29;20228;-77
2023/04/14 04:59:45;;;;;;;15.10;7.28;;;5.90;99.90;;;;;;4807131;29;20263;-78
2023/04/14 05:02:11;;;;;;;13.35;6.93;;;5.90;99.90;;;;;;4789905;29;20207;-78
2023/04/14 05:04:36;;;;;;;11.63;7.03;;;5.90;99.90;;;;;;4775598;29;20241;-78
2023/04/14 05:07:02;;;;;;;14.43;7.10;;;5.90;99.90;;;;;;4788437;29;20196;-79
2023/04/14 05:09:28;;;;;;;17.58;7.40;;;5.90;99.90;;;;;;4807628;29;20203;-78
2023/04/14 05:11:56;;;;;;;16.10;8.23;;;6.00;99.90;;;;;;4776024;29;20188;-78
2023/04/14 05:14:22;;;;;;;18.95;10.18;;;6.00;99.90;;;;;;4807412;29;20664;-78
2023/04/14 05:16:47;;;;;;;33.50;19.05;;;6.10;99.90;;;;;;4798567;29;20227;-78
2023/04/14 05:19:13;;;;;;;33.80;19.75;;;6.20;99.90;;;;;;4806413;29;20295;-78
2023/04/14 05:21:39;;;;;;;28.88;18.52;;;6.10;99.90;;;;;;4806869;29;20203;-78
2023/04/14 05:24:07;;;;;;;30.52;18.55;;;6.10;99.90;;;;;;4791026;29;20191;-79
2023/04/14 05:26:33;;;;;;;23.45;15.45;;;6.20;99.90;;;;;;4790767;29;20207;-79
2023/04/14 05:28:59;;;;;;;22.25;13.43;;;6.20;99.90;;;;;;4790704;29;20196;-77
2023/04/14 05:31:24;;;;;;;18.30;11.18;;;6.30;99.90;;;;;;4806793;29;20664;-79
2023/04/14 05:33:50;;;;;;;20.05;8.15;;;6.30;99.90;;;;;;4790660;29;20234;-79
2023/04/14 05:36:16;;;;;;;15.55;7.07;;;6.30;99.90;;;;;;4806523;29;20228;-78
2023/04/14 05:38:42;;;;;;;9.90;5.13;;;6.40;99.90;;;;;;4790995;29;20266;-79
2023/04/14 05:41:08;;;;;;;12.63;6.03;;;6.60;99.90;;;;;;4807080;29;20191;-75
2023/04/14 05:43:33;;;;;;;13.77;5.70;;;6.60;99.90;;;;;;4787044;29;20204;-76
2023/04/14 05:46:00;;;;;;;14.73;5.15;;;6.60;99.90;;;;;;4788585;30;20204;-77
2023/04/14 05:48:29;;;;;;;12.70;4.60;;;6.70;99.90;;;;;;4804295;29;20223;-77
2023/04/14 05:50:55;;;;;;;11.95;4.43;;;6.70;99.90;;;;;;4806342;29;20180;-77
2023/04/14 05:53:21;;;;;;;19.13;5.13;;;6.60;99.90;;;;;;4805362;29;20318;-78
2023/04/14 05:55:47;;;;;;;15.35;5.20;;;6.60;99.90;;;;;;4794100;29;20288;-78
2023/04/14 05:58:13;;;;;;;18.23;5.50;;;6.60;99.90;;;;;;4775347;29;20188;-77
2023/04/14 06:00:39;;;;;;;15.98;5.30;;;6.60;99.90;;;;;;4806202;29;20353;-77
2023/04/14 06:03:05;;;;;;;12.77;5.45;;;6.60;99.90;;;;;;4805554;29;20340;-78
2023/04/14 06:05:32;;;;;;;14.75;6.97;;;6.70;99.90;;;;;;4806110;29;20219;-77
2023/04/14 06:07:58;;;;;;;19.27;7.15;;;6.70;99.90;;;;;;4805265;29;20184;-78
2023/04/14 06:10:24;;;;;;;16.02;7.45;;;6.90;99.90;;;;;;4806018;29;20191;-77
2023/04/14 06:12:49;;;;;;;17.75;8.20;;;7.00;99.90;;;;;;4805467;29;20192;-79
2023/04/14 06:15:15;;;;;;;21.20;8.93;;;7.10;99.90;;;;;;4806145;29;20596;-78
2023/04/14 06:17:41;;;;;;;17.77;7.72;;;7.20;99.90;;;;;;4805332;29;20208;-77
2023/04/14 06:20:07;;;;;;;13.98;8.13;;;7.30;99.90;;;;;;4805864;29;20192;-77
2023/04/14 06:22:33;;;;;;;16.92;7.22;;;7.40;99.90;;;;;;4806000;29;20184;-78
2023/04/14 06:24:59;;;;;;;16.73;6.90;;;7.40;99.90;;;;;;4811173;29;20687;-78
2023/04/14 06:27:25;;;;;;;16.95;5.60;;;7.50;99.90;;;;;;4806095;29;20274;-79
2023/04/14 06:29:51;;;;;;;10.88;4.50;;;7.50;99.90;;;;;;4790193;29;20241;-78
2023/04/14 06:32:18;;;;;;;17.30;4.95;;;7.60;99.90;;;;;;4774736;29;20230;-77
2023/04/14 06:34:46;;;;;;;17.60;4.75;;;7.70;99.90;;;;;;4811710;29;20195;-78
2023/04/14 06:37:12;;;;;;;11.45;4.20;;;7.60;99.90;;;;;;4807968;29;20644;-78
2023/04/14 06:39:38;;;;;;;10.10;4.05;;;7.80;99.90;;;;;;4807674;29;20231;-78
2023/04/14 06:42:04;;;;;;;13.63;4.13;;;7.90;99.90;;;;;;4819325;29;20195;-78
2023/04/14 06:44:29;;;;;;;12.73;3.60;;;8.00;99.90;;;;;;4805037;29;20637;-78
2023/04/14 06:46:55;;;;;;;13.13;3.75;;;8.20;99.90;;;;;;4787822;30;20217;-78
2023/04/14 06:49:22;;;;;;;13.57;3.70;;;8.40;99.90;;;;;;4756750;30;20717;-79
2023/04/14 06:51:48;;;;;;;13.25;3.40;;;8.60;99.90;;;;;;4787689;29;20236;-79
2023/04/14 06:54:14;;;;;;;11.50;3.80;;;8.70;99.90;;;;;;4788066;30;20718;-78
2023/04/14 06:56:40;;;;;;;9.70;3.42;;;8.80;99.90;;;;;;4805161;29;20635;-79
2023/04/14 06:59:06;;;;;;;10.25;3.60;;;8.80;99.90;;;;;;4789451;29;20200;-80
2023/04/14 07:01:31;;;;;;;12.55;3.40;;;8.80;99.90;;;;;;4789184;29;20555;-79
2023/04/14 07:03:57;;;;;;;10.50;3.17;;;8.90;99.90;;;;;;4779515;30;20216;-78
2023/04/14 07:06:23;;;;;;;11.90;4.05;;;9.00;99.90;;;;;;4787755;30;20643;-80
2023/04/14 07:08:49;;;;;;;12.43;3.85;;;9.10;99.90;;;;;;4787507;30;20201;-77
2023/04/14 07:11:15;;;;;;;15.25;3.40;;;9.30;99.90;;;;;;4787917;29;20241;-78
2023/04/14 07:13:41;;;;;;;10.35;2.97;;;9.40;99.90;;;;;;4784571;29;20257;-78
2023/04/14 07:16:07;;;;;;;12.98;3.63;;;9.50;99.90;;;;;;4823779;29;20222;-79
2023/04/14 07:18:33;;;;;;;15.30;3.35;;;9.60;99.90;;;;;;4818344;29;20195;-79
2023/04/14 07:21:00;;;;;;;16.08;3.83;;;9.80;99.90;;;;;;4805830;29;20275;-78
2023/04/14 07:23:26;;;;;;;12.30;2.65;;;10.60;99.90;;;;;;4788629;29;20188;-78
2023/04/14 07:25:56;;;;;;;10.18;2.70;;;11.90;99.90;;;;;;4805361;29;20188;-78
2023/04/14 07:28:23;;;;;;;11.30;2.75;;;13.10;99.90;;;;;;4811025;29;20190;-78
2023/04/14 07:30:50;;;;;;;12.10;2.90;;;13.50;99.90;;;;;;4792640;29;20184;-82
2023/04/14 07:33:20;;;;;;;9.63;2.50;;;13.50;99.90;;;;;;4801008;29;20200;-78
2023/04/14 07:35:48;;;;;;;12.45;2.72;;;13.60;99.90;;;;;;4804421;29;20256;-79
2023/04/14 07:38:14;;;;;;;10.55;2.80;;;13.70;99.90;;;;;;4789564;29;20192;-79
2023/04/14 07:40:40;;;;;;;11.90;2.55;;;13.80;99.90;;;;;;4774900;30;20185;-78
2023/04/14 07:43:06;;;;;;;11.63;2.83;;;13.90;99.90;;;;;;4784166;29;20205;-82
2023/04/14 07:45:32;;;;;;;12.25;2.80;;;14.00;99.90;;;;;;4797456;29;20257;-82
2023/04/14 07:47:58;;;;;;;14.40;2.42;;;14.40;99.90;;;;;;4808112;29;20560;-79
2023/04/14 07:50:24;;;;;;;8.95;1.88;;;15.60;99.90;;;;;;4789211;29;20614;-79
2023/04/14 07:52:50;;;;;;;12.15;2.33;;;17.10;99.90;;;;;;4796613;29;20661;-81
2023/04/14 07:55:15;;;;;;;15.48;2.22;;;18.70;97.70;;;;;;4803500;29;20187;-79
2023/04/14 07:57:41;;;;;;;6.15;1.70;;;20.00;93.90;;;;;;4814605;29;20215;-79
2023/04/14 08:00:10;;;;;;;9.52;2.08;;;21.30;89.90;;;;;;4808123;29;20673;-79
2023/04/14 08:02:39;;;;;;;11.95;2.10;;;22.50;80.90;;;;;;4808511;29;20204;-78
2023/04/14 08:05:05;;;;;;;9.05;2.20;;;23.30;70.80;;;;;;4785570;29;20200;-81
2023/04/14 08:07:31;;;;;;;6.30;1.80;;;24.00;65.50;;;;;;4774232;30;20569;-80
2023/04/14 08:09:58;;;;;;;12.50;2.30;;;24.30;60.40;;;;;;4790658;30;20205;-79
2023/04/14 08:12:24;;;;;;;8.63;2.05;;;24.70;56.00;;;;;;4804541;29;20629;-79
2023/04/14 08:14:52;;;;;;;10.18;2.30;;;25.20;54.40;;;;;;4799735;29;20212;-79
2023/04/14 08:17:18;;;;;;;10.77;2.25;;;25.80;51.90;;;;;;4800350;29;20223;-78
2023/04/14 08:19:43;;;;;;;9.40;2.58;;;26.10;50.60;;;;;;4816202;29;20524;-78
2023/04/14 08:22:09;;;;;;;9.05;2.10;;;26.50;48.40;;;;;;4819928;29;20269;-78
2023/04/14 08:24:35;;;;;;;13.13;3.92;;;26.90;47.10;;;;;;4808168;29;20594;-79
2023/04/14 08:27:01;;;;;;;11.60;3.00;;;27.30;45.50;;;;;;4805648;29;20204;-78
2023/04/14 08:29:27;;;;;;;10.13;2.25;;;27.70;44.10;;;;;;4807101;29;20646;-80
2023/04/14 08:31:53;;;;;;;8.73;2.47;;;28.10;42.70;;;;;;4805517;29;20310;-81
2023/04/14 08:34:19;;;;;;;11.35;2.80;;;28.30;41.50;;;;;;4794741;29;20278;-80
2023/04/14 08:36:46;;;;;;;7.60;2.10;;;28.20;40.30;;;;;;4805968;29;20227;-83
2023/04/14 08:39:12;;;;;;;13.18;2.53;;;27.90;40.50;;;;;;4788108;29;20246;-80
2023/04/14 08:41:38;;;;;;;11.02;2.58;;;27.70;40.30;;;;;;4800799;29;20195;-81
2023/04/14 08:44:05;;;;;;;11.95;2.33;;;27.30;40.10;;;;;;4806040;29;20200;-80
2023/04/14 08:46:31;;;;;;;8.80;2.35;;;26.20;41.00;;;;;;4805496;29;20191;-82
2023/04/14 08:49:05;;;;;;;13.60;2.88;;;24.90;42.80;;;;;;4806019;29;20546;-80
2023/04/14 08:51:34;;;;;;;8.32;2.70;;;23.50;44.80;;;;;;4806919;29;20186;-80
2023/04/14 08:54:04;;;;;;;11.57;2.90;;;22.20;47.40;;;;;;4790464;29;20200;-80
2023/04/14 08:56:33;;;;;;;13.60;2.95;;;21.00;50.20;;;;;;4803794;29;20220;-79
2023/04/14 08:59:00;;;;;;;12.98;2.72;;;20.00;52.60;;;;;;4804644;29;20253;-79
2023/04/14 09:01:29;;;;;;;8.93;2.78;;;19.50;54.80;;;;;;4806352;29;20192;-77
2023/04/14 09:03:56;;;;;;;12.10;2.78;;;18.90;56.60;;;;;;4806510;29;20634;-79
2023/04/14 09:06:22;;;;;;;19.25;6.22;;;18.50;57.80;;;;;;4800894;29;20238;-79
2023/04/14 09:08:48;;;;;;;10.80;5.20;;;18.20;59.00;;;;;;4805526;29;20196;-78
2023/04/14 09:11:17;;;;;;;11.77;2.72;;;17.90;59.70;;;;;;4776742;29;20196;-79
2023/04/14 09:13:43;;;;;;;12.30;3.03;;;17.60;61.30;;;;;;4804833;29;20215;-79
2023/04/14 09:16:11;;;;;;;10.77;2.58;;;17.50;62.70;;;;;;4789897;29;20677;-80
2023/04/14 09:18:38;;;;;;;8.13;2.33;;;17.30;63.00;;;;;;4805862;29;20192;-80
2023/04/14 09:21:03;;;;;;;9.65;2.40;;;17.20;64.80;;;;;;4801135;29;20192;-80
2023/04/14 09:23:30;;;;;;;14.75;2.58;;;17.30;66.20;;;;;;4801059;29;20599;-82
2023/04/14 09:25:57;;;;;;;9.93;2.47;;;17.40;65.80;;;;;;4806522;29;20236;-78
2023/04/14 09:28:23;;;;;;;12.30;2.60;;;17.40;65.20;;;;;;4791189;29;20196;-78
2023/04/14 09:30:49;;;;;;;10.20;2.63;;;17.40;65.20;;;;;;4807506;29;20200;-79
2023/04/14 09:33:20;;;;;;;9.80;2.88;;;17.40;65.70;;;;;;4802904;29;20203;-79
2023/04/14 09:35:48;;;;;;;12.60;3.03;;;17.30;65.60;;;;;;4774944;29;20626;-79
2023/04/14 09:38:30;;;;;;;14.05;2.65;;;17.20;67.00;;;;;;4796978;29;20196;-80
2023/04/14 09:40:55;;;;;;;12.57;3.53;;;17.20;67.80;;;;;;4783926;29;20191;-80
2023/04/14 09:43:26;;;;;;;10.05;2.67;;;17.10;68.40;;;;;;4801123;29;20760;-80
2023/04/14 09:45:52;;;;;;;10.77;2.85;;;17.20;68.90;;;;;;4805414;29;20233;-81
2023/04/14 09:48:20;;;;;;;14.35;2.80;;;17.30;68.50;;;;;;4772761;29;20183;-80
2023/04/14 09:51:12;;;;;;;9.90;3.20;;;17.30;68.40;;;;;;4803951;29;20249;-80
2023/04/14 09:53:40;;;;;;;13.60;2.53;;;17.40;69.90;;;;;;4788818;29;20794;-80
2023/04/14 09:56:11;;;;;;;13.07;3.15;;;17.50;69.10;;;;;;4805576;29;20657;-79
2023/04/14 09:58:41;;;;;;;13.73;2.92;;;17.50;69.10;;;;;;4791249;29;20197;-79
2023/04/14 10:01:33;;;;;;;15.98;3.25;;;17.60;68.80;;;;;;4788529;30;20273;-79
2023/04/14 10:04:01;;;;;;;13.70;3.20;;;17.70;67.70;;;;;;4770079;30;20689;-79
2023/04/14 10:06:27;;;;;;;9.55;2.90;;;17.80;68.00;;;;;;4802153;29;20218;-79
2023/04/14 10:08:54;;;;;;;11.85;2.38;;;17.80;67.70;;;;;;4789325;29;20653;-79
2023/04/14 10:11:24;;;;;;;13.75;3.35;;;17.80;67.80;;;;;;4806145;29;20279;-79
2023/04/14 10:13:53;;;;;;;10.57;3.08;;;17.90;67.60;;;;;;4789157;29;20204;-78
2023/04/14 10:16:20;;;;;;;8.52;2.90;;;17.90;66.30;;;;;;4792779;29;20219;-79
2023/04/14 10:18:46;;;;;;;12.32;3.55;;;17.90;67.30;;;;;;4804233;29;20299;-78
2023/04/14 10:21:13;;;;;;;11.63;2.90;;;17.90;67.70;;;;;;4805989;29;20238;-78
2023/04/14 10:23:40;;;;;;;10.85;2.72;;;17.90;66.90;;;;;;4807674;29;20191;-78
2023/04/14 10:26:10;;;;;;;13.18;3.72;;;18.00;66.30;;;;;;4824631;29;20628;-78
2023/04/14 10:28:45;;;;;;;12.45;3.25;;;18.00;65.30;;;;;;4791396;29;20245;-80
2023/04/14 10:31:19;;;;;;;9.80;2.90;;;18.00;64.90;;;;;;4789465;29;20653;-79
2023/04/14 10:33:45;;;;;;;13.95;3.05;;;18.10;64.80;;;;;;4804020;29;20271;-78
2023/04/14 10:36:11;;;;;;;12.90;2.95;;;18.20;64.60;;;;;;4789899;29;20272;-78
2023/04/14 10:38:44;;;;;;;8.98;3.00;;;18.30;64.40;;;;;;4794049;29;20215;-79
2023/04/14 10:41:11;;;;;;;12.90;3.30;;;18.30;63.80;;;;;;4772385;30;20570;-78
2023/04/14 10:43:38;;;;;;;9.27;2.70;;;18.40;64.00;;;;;;4772216;29;20180;-79
2023/04/14 10:46:08;;;;;;;7.35;2.85;;;18.50;63.90;;;;;;4806022;29;20191;-79
2023/04/14 10:48:40;;;;;;;10.38;3.28;;;18.60;63.10;;;;;;4777121;29;20180;-80
2023/04/14 10:51:08;;;;;;;11.77;3.15;;;18.60;62.40;;;;;;4772168;30;20189;-80
2023/04/14 10:53:54;;;;;;;12.02;3.40;;;18.50;60.90;;;;;;4783818;29;20242;-80
2023/04/14 10:56:20;;;;;;;9.68;2.78;;;18.30;62.10;;;;;;4791946;29;20276;-79
2023/04/14 10:58:57;;;;;;;14.32;3.53;;;18.20;61.60;;;;;;4803821;29;20637;-79
2023/04/14 11:01:34;;;;;;;8.98;2.58;;;18.10;61.80;;;;;;4789905;29;20622;-79
2023/04/14 11:04:17;;;;;;;10.10;2.88;;;18.00;61.60;;;;;;4791443;29;20232;-79
2023/04/14 11:06:46;;;;;;;11.40;2.80;;;17.90;61.80;;;;;;4809069;29;20198;-79
2023/04/14 11:09:29;;;;;;;12.23;3.35;;;17.90;62.30;;;;;;4807086;29;20199;-79
2023/04/14 11:11:58;;;;;;;9.70;3.08;;;17.90;60.70;;;;;;4801415;29;20208;-81
2023/04/14 11:14:30;;;;;;;11.88;3.17;;;18.00;61.00;;;;;;4798235;29;20188;-78
2023/04/14 11:17:05;;;;;;;10.35;2.90;;;18.00;61.10;;;;;;4805958;29;20270;-79
2023/04/14 11:19:31;;;;;;;11.57;3.05;;;18.10;61.60;;;;;;4790599;30;20220;-80
2023/04/14 11:21:57;;;;;;;10.93;3.10;;;18.10;61.50;;;;;;4774759;29;20193;-79
2023/04/14 11:24:24;;;;;;;10.52;3.00;;;18.10;61.10;;;;;;4795372;29;20176;-80
2023/04/14 11:26:54;;;;;;;10.98;2.95;;;18.20;60.90;;;;;;4808934;29;20257;-79
2023/04/14 11:29:21;;;;;;;12.00;3.60;;;18.30;60.60;;;;;;4795303;29;20250;-78
2023/04/14 11:32:02;;;;;;;8.68;2.97;;;18.40;60.00;;;;;;4807603;29;20184;-79
2023/04/14 11:34:28;;;;;;;12.80;3.58;;;18.40;59.40;;;;;;4802966;29;20237;-78
2023/04/14 11:36:55;;;;;;;9.50;2.63;;;18.50;59.40;;;;;;4801082;29;20267;-77
2023/04/14 11:39:22;;;;;;;7.70;2.97;;;18.70;59.10;;;;;;4808650;29;20191;-77
2023/04/14 11:41:49;;;;;;;9.15;3.20;;;18.80;58.20;;;;;;4808712;29;20184;-78
2023/04/14 11:44:17;;;;;;;8.48;3.00;;;18.70;57.50;;;;;;4793263;29;20279;-77
2023/04/14 11:46:43;;;;;;;8.10;2.72;;;18.60;57.50;;;;;;4807028;29;20200;-78
2023/04/14 11:49:09;;;;;;;11.13;2.85;;;18.50;57.90;;;;;;4792448;29;20260;-78
2023/04/14 11:51:35;;;;;;;7.25;2.65;;;18.50;58.30;;;;;;4807505;29;20562;-79
2023/04/14 11:54:01;;;;;;;6.15;2.80;;;18.60;58.20;;;;;;4805265;29;20276;-79
2023/04/14 11:56:27;;;;;;;11.75;3.00;;;18.50;57.10;;;;;;4804057;29;20208;-79
2023/04/14 11:59:03;;;;;;;9.80;2.60;;;18.50;56.30;;;;;;4788969;30;20193;-78
2023/04/14 12:01:30;;;;;;;10.25;3.85;;;18.40;56.30;;;;;;4790647;30;20233;-78
2023/04/14 12:03:56;;;;;;;9.90;4.22;;;18.30;56.90;;;;;;4807964;29;20716;-79
2023/04/14 12:06:23;;;;;;;11.40;5.00;;;18.30;56.80;;;;;;4790331;29;20653;-78
2023/04/14 12:08:53;;;;;;;18.80;5.20;;;18.20;56.90;;;;;;4807791;29;20195;-81
2023/04/14 12:11:19;;;;;;;11.38;4.15;;;18.10;57.40;;;;;;4791393;29;20192;-78
2023/04/14 12:13:46;;;;;;;9.63;3.10;;;18.10;58.00;;;;;;4791477;29;20195;-76
2023/04/14 12:16:13;;;;;;;8.48;3.30;;;18.00;58.40;;;;;;4801703;29;20685;-77
2023/04/14 12:18:40;;;;;;;8.20;3.00;;;17.90;57.90;;;;;;4792412;29;20191;-77
2023/04/14 12:21:06;;;;;;;9.45;3.00;;;17.60;57.60;;;;;;4790219;29;20189;-76
2023/04/14 12:23:36;;;;;;;7.18;2.60;;;17.40;57.90;;;;;;4805454;29;20204;-77
2023/04/14 12:26:02;;;;;;;8.07;3.03;;;17.30;58.40;;;;;;4789003;30;20196;-76
2023/04/14 12:28:29;;;;;;;11.15;3.00;;;17.30;58.20;;;;;;4789652;29;20201;-77
2023/04/14 12:30:58;;;;;;;11.00;2.45;;;17.30;58.10;;;;;;4789996;29;20200;-78
2023/04/14 12:33:26;;;;;;;12.98;2.85;;;17.40;58.10;;;;;;4790819;29;20214;-79
2023/04/14 12:35:52;;;;;;;11.40;2.70;;;17.50;58.20;;;;;;4805630;29;20192;-78
2023/04/14 12:38:18;;;;;;;9.43;2.47;;;17.50;57.80;;;;;;4803835;29;20193;-78
2023/04/14 12:40:46;;;;;;;8.80;2.40;;;17.60;57.60;;;;;;4804448;29;20196;-79
2023/04/14 12:43:13;;;;;;;10.88;2.90;;;17.50;57.40;;;;;;4791409;29;20199;-80
2023/04/14 12:45:47;;;;;;;9.80;2.60;;;17.50;57.40;;;;;;4760965;29;20248;-78
2023/04/14 12:48:15;;;;;;;9.63;2.63;;;17.50;57.10;;;;;;4784003;29;20270;-79
2023/04/14 12:50:42;;;;;;;9.25;2.28;;;17.40;57.10;;;;;;4791418;29;20216;-79
2023/04/14 12:53:25;;;;;;;9.82;2.42;;;17.40;57.30;;;;;;4793707;29;20247;-79
2023/04/14 12:56:07;;;;;;;8.48;2.70;;;17.30;56.80;;;;;;4789635;30;20188;-78
2023/04/14 12:58:37;;;;;;;8.45;2.63;;;17.20;56.50;;;;;;4784204;29;20204;-78